createdAt,value
2022-10-30T00:02:59.705Z,15.80
2022-10-30T00:07:02.695Z,15.70
2022-10-30T00:11:09.892Z,15.70
2022-10-30T00:15:15.917Z,15.60
2022-10-30T00:19:18.756Z,15.50
2022-10-30T00:23:21.466Z,15.50
2022-10-30T00:27:24.180Z,15.50
2022-10-30T00:31:28.441Z,15.40
2022-10-30T00:35:31.687Z,15.30
2022-10-30T00:39:34.474Z,15.30
2022-10-30T00:43:39.255Z,15.20
2022-10-30T00:47:46.070Z,15.20
2022-10-30T00:51:52.341Z,15.10
2022-10-30T00:56:00.136Z,15.10
2022-10-30T01:00:03.779Z,15.00
2022-10-30T01:04:08.494Z,15.00
2022-10-30T01:08:11.288Z,15.00
2022-10-30T01:12:14.163Z,14.90
2022-10-30T01:16:39.374Z,14.90
2022-10-30T01:21:09.858Z,14.90
2022-10-30T01:25:20.132Z,14.80
2022-10-30T01:29:42.423Z,14.80
2022-10-30T01:34:00.793Z,14.80
2022-10-30T01:38:10.757Z,14.80
2022-10-30T01:42:44.834Z,14.80
2022-10-30T01:47:12.906Z,14.80
2022-10-30T01:51:21.653Z,14.70
2022-10-30T01:55:38.372Z,14.60
2022-10-30T01:59:45.591Z,14.60
2022-10-30T02:03:48.855Z,14.50
2022-10-30T02:07:51.666Z,14.30
2022-10-30T02:11:56.456Z,14.10
2022-10-30T02:16:00.500Z,13.90
2022-10-30T02:20:03.194Z,13.80
2022-10-30T02:24:08.574Z,13.80
2022-10-30T02:28:11.911Z,13.70
2022-10-30T02:32:14.577Z,13.70
2022-10-30T02:36:17.985Z,13.70
2022-10-30T02:40:22.058Z,13.70
2022-10-30T02:44:24.755Z,13.70
2022-10-30T02:48:27.448Z,13.60
2022-10-30T02:52:30.177Z,13.60
2022-10-30T02:56:34.241Z,13.50
2022-10-30T03:00:37.029Z,13.50
2022-10-30T03:04:39.851Z,13.50
2022-10-30T03:08:43.185Z,13.50
2022-10-30T03:12:47.277Z,13.50
2022-10-30T03:16:52.620Z,13.50
2022-10-30T03:20:58.542Z,13.50
2022-10-30T03:25:01.249Z,13.50
2022-10-30T03:29:05.325Z,13.40
2022-10-30T03:33:08.805Z,13.40
2022-10-30T03:37:11.552Z,13.30
2022-10-30T03:41:14.794Z,13.30
2022-10-30T03:45:20.781Z,13.20
2022-10-30T03:49:23.729Z,13.20
2022-10-30T03:53:28.454Z,13.10
2022-10-30T03:57:31.447Z,13.10
2022-10-30T04:01:45.668Z,13.20
2022-10-30T04:05:50.986Z,13.20
2022-10-30T04:09:54.808Z,13.20
2022-10-30T04:13:57.643Z,13.20
2022-10-30T04:18:02.555Z,13.20
2022-10-30T04:22:06.851Z,13.20
2022-10-30T04:26:11.117Z,13.10
2022-10-30T04:30:16.337Z,13.00
2022-10-30T04:34:20.686Z,12.90
2022-10-30T04:38:23.698Z,12.90
2022-10-30T04:42:26.851Z,12.80
2022-10-30T04:46:29.989Z,12.80
2022-10-30T04:50:40.642Z,12.70
2022-10-30T04:54:43.401Z,12.70
2022-10-30T04:58:46.246Z,12.60
2022-10-30T05:02:49.166Z,12.50
2022-10-30T05:06:53.301Z,12.50
2022-10-30T05:10:57.034Z,12.40
2022-10-30T05:14:59.781Z,12.40
2022-10-30T05:19:02.979Z,12.40
2022-10-30T05:23:07.383Z,12.40
2022-10-30T05:27:10.154Z,12.40
2022-10-30T05:31:12.847Z,12.30
2022-10-30T05:35:35.479Z,12.30
2022-10-30T05:39:42.274Z,12.30
2022-10-30T05:43:54.597Z,12.40
2022-10-30T05:47:58.723Z,12.30
2022-10-30T05:52:01.748Z,12.40
2022-10-30T05:56:06.178Z,12.40
2022-10-30T06:00:11.784Z,12.40
2022-10-30T06:04:17.976Z,12.40
2022-10-30T06:08:21.084Z,12.30
2022-10-30T06:12:28.093Z,12.30
2022-10-30T06:16:50.509Z,12.20
2022-10-30T06:21:08.244Z,12.30
2022-10-30T06:25:23.021Z,12.20
2022-10-30T06:29:34.652Z,12.30
2022-10-30T06:33:37.365Z,12.30
2022-10-30T06:37:45.794Z,12.30
2022-10-30T06:41:48.941Z,12.40
2022-10-30T06:50:18.925Z,12.40
2022-10-30T06:54:21.976Z,12.50
2022-10-30T06:58:47.928Z,12.50
2022-10-30T07:03:20.825Z,12.60
2022-10-30T07:07:23.642Z,12.70
2022-10-30T07:11:26.805Z,12.80
2022-10-30T07:15:37.086Z,12.90
2022-10-30T07:19:52.583Z,12.90
2022-10-30T07:23:55.449Z,13.00
2022-10-30T07:28:06.084Z,13.10
2022-10-30T07:32:17.206Z,13.20
2022-10-30T07:36:27.177Z,13.30
2022-10-30T07:40:53.422Z,13.40
2022-10-30T07:45:15.034Z,13.50
2022-10-30T07:49:36.354Z,13.70
2022-10-30T07:53:43.505Z,13.80
2022-10-30T07:57:46.553Z,13.90
2022-10-30T08:01:52.177Z,14.10
2022-10-30T08:06:03.775Z,14.20
2022-10-30T08:10:12.632Z,14.40
2022-10-30T08:14:15.349Z,14.50
2022-10-30T08:18:18.213Z,14.60
2022-10-30T08:22:23.550Z,14.80
2022-10-30T08:26:36.379Z,14.90
2022-10-30T08:30:39.896Z,15.10
2022-10-30T08:34:45.535Z,15.30
2022-10-30T08:38:51.526Z,15.50
2022-10-30T08:43:07.754Z,15.70
2022-10-30T08:47:10.763Z,16.00
2022-10-30T08:51:15.062Z,16.20
2022-10-30T08:55:20.644Z,16.40
2022-10-30T08:59:24.934Z,16.60
2022-10-30T09:03:29.913Z,16.80
2022-10-30T09:08:07.750Z,17.10
2022-10-30T09:12:29.021Z,17.30
2022-10-30T09:16:33.202Z,17.60
2022-10-30T09:20:35.990Z,17.80
2022-10-30T09:24:40.170Z,18.10
2022-10-30T09:29:01.391Z,18.50
2022-10-30T09:33:23.981Z,19.20
2022-10-30T09:37:46.614Z,21.10
2022-10-30T09:42:08.117Z,23.40
2022-10-30T09:46:32.662Z,25.20
2022-10-30T09:50:44.129Z,26.70
2022-10-30T09:55:03.185Z,28.20
2022-10-30T09:59:18.657Z,29.40
2022-10-30T10:03:38.150Z,30.60
2022-10-30T10:08:24.621Z,31.60
2022-10-30T10:13:00.197Z,32.40
2022-10-30T10:17:07.032Z,32.80
2022-10-30T10:21:19.324Z,33.40
2022-10-30T10:25:24.713Z,33.90
2022-10-30T10:29:43.449Z,33.40
2022-10-30T10:33:59.123Z,32.60
2022-10-30T10:38:13.650Z,32.60
2022-10-30T10:42:29.972Z,33.30
2022-10-30T10:46:46.953Z,33.10
2022-10-30T10:50:52.521Z,33.10
2022-10-30T10:54:58.242Z,33.70
2022-10-30T10:59:05.890Z,34.50
2022-10-30T11:03:13.333Z,35.20
2022-10-30T11:07:21.677Z,35.60
2022-10-30T11:11:24.643Z,36.20
2022-10-30T11:15:41.128Z,36.40
2022-10-30T11:19:46.546Z,36.50
2022-10-30T11:23:53.373Z,36.80
2022-10-30T11:27:57.714Z,36.90
2022-10-30T11:32:03.682Z,36.40
2022-10-30T11:36:15.480Z,34.80
2022-10-30T11:40:21.350Z,34.20
2022-10-30T11:44:26.009Z,34.00
2022-10-30T11:48:32.363Z,33.80
2022-10-30T11:52:39.508Z,33.80
2022-10-30T11:56:48.249Z,33.50
2022-10-30T12:01:01.412Z,33.90
2022-10-30T12:05:34.925Z,34.20
2022-10-30T12:09:45.142Z,35.00
2022-10-30T12:13:47.863Z,35.70
2022-10-30T12:17:53.287Z,36.00
2022-10-30T12:21:58.657Z,35.80
2022-10-30T12:26:08.622Z,35.60
2022-10-30T12:30:18.888Z,35.90
2022-10-30T12:34:41.410Z,36.20
2022-10-30T12:38:50.279Z,36.20
2022-10-30T12:42:59.660Z,36.00
2022-10-30T12:47:06.792Z,35.40
2022-10-30T12:51:21.297Z,34.60
2022-10-30T12:55:34.872Z,34.00
2022-10-30T12:59:47.532Z,33.70
2022-10-30T13:03:54.988Z,33.60
2022-10-30T13:08:12.993Z,33.40
2022-10-30T13:12:22.192Z,33.00
2022-10-30T13:16:28.762Z,32.50
2022-10-30T13:20:32.401Z,32.30
2022-10-30T13:24:48.069Z,31.90
2022-10-30T13:28:56.707Z,31.70
2022-10-30T13:33:11.161Z,31.60
2022-10-30T13:37:17.745Z,31.60
2022-10-30T13:41:31.180Z,31.20
2022-10-30T13:46:08.192Z,30.60
2022-10-30T13:50:39.156Z,30.30
2022-10-30T13:54:47.145Z,30.10
2022-10-30T13:59:04.019Z,29.90
2022-10-30T14:03:25.342Z,29.70
2022-10-30T14:07:34.049Z,29.30
2022-10-30T14:11:36.765Z,29.00
2022-10-30T14:15:43.453Z,28.70
2022-10-30T14:20:26.711Z,28.20
2022-10-30T14:24:31.200Z,27.80
2022-10-30T14:28:35.871Z,27.30
2022-10-30T14:32:43.026Z,26.90
2022-10-30T14:36:50.734Z,26.50
2022-10-30T14:41:18.614Z,26.20
2022-10-30T14:45:26.792Z,25.90
2022-10-30T14:49:45.161Z,25.70
2022-10-30T14:54:01.493Z,25.40
2022-10-30T14:58:19.943Z,25.10
2022-10-30T15:02:38.226Z,24.90
2022-10-30T15:06:52.141Z,24.60
2022-10-30T15:11:15.285Z,24.40
2022-10-30T15:15:20.585Z,24.20
2022-10-30T15:19:25.504Z,24.00
2022-10-30T15:23:29.778Z,23.80
2022-10-30T15:27:35.644Z,23.60
2022-10-30T15:31:38.386Z,23.40
2022-10-30T15:35:48.306Z,23.20
2022-10-30T15:39:50.989Z,23.10
2022-10-30T15:43:55.231Z,22.90
2022-10-30T15:48:00.605Z,22.70
2022-10-30T15:52:06.018Z,22.50
2022-10-30T15:56:19.378Z,22.30
2022-10-30T16:00:26.466Z,22.20
2022-10-30T16:04:33.226Z,22.00
2022-10-30T16:08:44.863Z,21.80
2022-10-30T16:12:48.789Z,21.70
2022-10-30T16:16:53.259Z,21.50
2022-10-30T16:20:57.410Z,21.40
2022-10-30T16:25:00.971Z,21.20
2022-10-30T16:29:12.238Z,21.10
2022-10-30T16:33:18.349Z,20.90
2022-10-30T16:37:27.530Z,20.80
2022-10-30T16:41:32.309Z,20.60
2022-10-30T16:46:15.809Z,20.50
2022-10-30T16:50:21.242Z,20.40
2022-10-30T16:54:28.200Z,20.30
2022-10-30T16:58:32.569Z,20.10
2022-10-30T17:02:37.794Z,20.00
2022-10-30T17:06:44.514Z,19.80
2022-10-30T17:10:58.194Z,19.70
2022-10-30T17:15:12.579Z,19.60
2022-10-30T17:19:46.200Z,19.60
2022-10-30T17:23:52.611Z,19.50
2022-10-30T17:27:55.364Z,19.40
2022-10-30T17:31:59.597Z,19.30
2022-10-30T17:36:03.909Z,19.20
2022-10-30T17:40:09.173Z,19.20
2022-10-30T17:44:19.268Z,19.00
2022-10-30T17:48:25.345Z,18.90
2022-10-30T17:52:28.078Z,18.80
2022-10-30T17:56:34.604Z,18.60
2022-10-30T18:00:37.172Z,18.60
2022-10-30T18:04:42.121Z,18.50
2022-10-30T18:08:47.912Z,18.50
2022-10-30T18:12:54.766Z,18.40
2022-10-30T18:16:57.476Z,18.30
2022-10-30T18:21:00.178Z,18.20
2022-10-30T18:25:03.594Z,18.10
2022-10-30T18:29:07.685Z,18.00
2022-10-30T18:33:11.589Z,18.00
2022-10-30T18:37:14.335Z,17.90
2022-10-30T18:41:19.051Z,17.80
2022-10-30T18:45:34.155Z,17.70
2022-10-30T18:49:36.978Z,17.60
2022-10-30T18:53:39.718Z,17.50
2022-10-30T18:57:42.442Z,17.30
2022-10-30T19:01:46.628Z,17.30
2022-10-30T19:05:50.805Z,17.20
2022-10-30T19:09:53.498Z,17.20
2022-10-30T19:13:56.223Z,17.20
2022-10-30T19:18:01.926Z,17.10
2022-10-30T19:22:04.894Z,17.00
2022-10-30T19:26:07.628Z,16.90
2022-10-30T19:30:11.576Z,17.00
2022-10-30T19:34:15.665Z,16.80
2022-10-30T19:38:18.361Z,16.80
2022-10-30T19:42:21.126Z,16.70
2022-10-30T19:46:23.851Z,16.60
2022-10-30T19:50:30.742Z,16.40
2022-10-30T19:54:33.462Z,16.40
2022-10-30T19:58:36.206Z,16.20
2022-10-30T20:02:38.997Z,16.20
2022-10-30T20:06:43.189Z,16.10
2022-10-30T20:10:51.577Z,16.00
2022-10-30T20:14:54.327Z,16.00
2022-10-30T20:18:58.150Z,16.00
2022-10-30T20:23:02.361Z,16.10
2022-10-30T20:27:05.142Z,15.90
2022-10-30T20:31:08.705Z,15.90
2022-10-30T20:35:11.536Z,16.00
2022-10-30T20:39:15.590Z,15.90
2022-10-30T20:43:20.331Z,15.90
2022-10-30T20:47:23.050Z,15.80
2022-10-30T20:51:25.736Z,15.70
2022-10-30T20:55:29.979Z,15.50
2022-10-30T20:59:32.755Z,15.40
2022-10-30T21:03:35.537Z,15.30
2022-10-30T21:07:38.495Z,15.30
2022-10-30T21:11:42.545Z,15.30
2022-10-30T21:15:45.423Z,15.20
2022-10-30T21:19:48.107Z,15.20
2022-10-30T21:23:54.651Z,15.20
2022-10-30T21:27:58.839Z,15.20
2022-10-30T21:32:01.564Z,15.20
2022-10-30T21:36:11.643Z,15.10
2022-10-30T21:40:15.319Z,15.10
2022-10-30T21:44:19.402Z,15.10
2022-10-30T21:48:22.111Z,15.10
2022-10-30T21:52:24.846Z,15.10
2022-10-30T21:56:29.306Z,15.10
2022-10-30T22:00:33.506Z,15.00
2022-10-30T22:04:36.223Z,14.90
2022-10-30T22:08:39.278Z,14.80
2022-10-30T22:12:41.958Z,14.80
2022-10-30T22:16:46.113Z,14.90
2022-10-30T22:20:48.887Z,14.80
2022-10-30T22:24:51.672Z,14.70
2022-10-30T22:28:55.501Z,14.60
2022-10-30T22:32:59.987Z,14.50
2022-10-30T22:37:02.841Z,14.40
2022-10-30T22:41:13.727Z,14.50
2022-10-30T22:45:16.579Z,14.50
2022-10-30T22:49:20.807Z,14.40
2022-10-30T22:53:23.622Z,14.30
2022-10-30T22:57:26.341Z,14.20
2022-10-30T23:01:30.766Z,14.20
2022-10-30T23:05:34.875Z,14.20
2022-10-30T23:09:37.599Z,14.20
2022-10-30T23:13:41.277Z,14.00
2022-10-30T23:17:44.024Z,13.90
2022-10-30T23:21:48.080Z,14.00
2022-10-30T23:25:50.818Z,13.80
2022-10-30T23:29:53.561Z,13.80
2022-10-30T23:33:58.672Z,13.60
2022-10-30T23:38:02.729Z,13.40
2022-10-30T23:42:05.526Z,13.40
2022-10-30T23:46:08.298Z,13.40
2022-10-30T23:50:11.119Z,13.40
2022-10-30T23:54:15.137Z,13.40
2022-10-30T23:58:17.827Z,13.40
